sensor_id;sensor_type;location;lat;lon;timestamp;P1;durP1;ratioP1;P2;durP2;ratioP2
33760;SDS011;20084;47.912;19.044;2023-06-14T00:01:24;5.35;;;3.13;;
33760;SDS011;20084;47.912;19.044;2023-06-14T00:03:50;4.00;;;2.70;;
33760;SDS011;20084;47.912;19.044;2023-06-14T00:06:15;4.25;;;3.20;;
33760;SDS011;20084;47.912;19.044;2023-06-14T00:08:42;5.80;;;3.53;;
33760;SDS011;20084;47.912;19.044;2023-06-14T00:11:07;4.53;;;2.83;;
33760;SDS011;20084;47.912;19.044;2023-06-14T00:13:33;6.15;;;1.95;;
33760;SDS011;20084;47.912;19.044;2023-06-14T00:15:59;3.22;;;2.00;;
33760;SDS011;20084;47.912;19.044;2023-06-14T00:18:25;3.63;;;1.30;;
33760;SDS011;20084;47.912;19.044;2023-06-14T00:20:54;2.42;;;2.22;;
33760;SDS011;20084;47.912;19.044;2023-06-14T00:23:20;2.95;;;1.63;;
33760;SDS011;20084;47.912;19.044;2023-06-14T00:25:46;1.77;;;1.63;;
33760;SDS011;20084;47.912;19.044;2023-06-14T00:28:12;4.22;;;1.75;;
33760;SDS011;20084;47.912;19.044;2023-06-14T00:30:38;2.50;;;1.60;;
33760;SDS011;20084;47.912;19.044;2023-06-14T00:33:04;3.53;;;1.80;;
33760;SDS011;20084;47.912;19.044;2023-06-14T00:35:30;2.47;;;1.42;;
33760;SDS011;20084;47.912;19.044;2023-06-14T00:37:55;1.90;;;1.70;;
33760;SDS011;20084;47.912;19.044;2023-06-14T00:40:21;1.80;;;1.58;;
33760;SDS011;20084;47.912;19.044;2023-06-14T00:42:47;4.30;;;1.67;;
33760;SDS011;20084;47.912;19.044;2023-06-14T00:45:13;3.53;;;1.70;;
33760;SDS011;20084;47.912;19.044;2023-06-14T00:47:40;3.45;;;1.60;;
33760;SDS011;20084;47.912;19.044;2023-06-14T00:50:08;2.00;;;1.67;;
33760;SDS011;20084;47.912;19.044;2023-06-14T00:52:34;2.28;;;1.50;;
33760;SDS011;20084;47.912;19.044;2023-06-14T00:55:01;2.97;;;1.80;;
33760;SDS011;20084;47.912;19.044;2023-06-14T00:57:27;3.05;;;2.10;;
33760;SDS011;20084;47.912;19.044;2023-06-14T00:59:54;2.05;;;1.85;;
33760;SDS011;20084;47.912;19.044;2023-06-14T01:02:21;5.82;;;1.80;;
33760;SDS011;20084;47.912;19.044;2023-06-14T01:04:47;5.63;;;1.75;;
33760;SDS011;20084;47.912;19.044;2023-06-14T01:13:06;1.77;;;1.60;;
33760;SDS011;20084;47.912;19.044;2023-06-14T01:15:40;2.20;;;1.80;;
33760;SDS011;20084;47.912;19.044;2023-06-14T01:18:08;4.05;;;1.80;;
33760;SDS011;20084;47.912;19.044;2023-06-14T01:20:42;2.78;;;2.15;;
33760;SDS011;20084;47.912;19.044;2023-06-14T01:23:10;2.33;;;1.60;;
33760;SDS011;20084;47.912;19.044;2023-06-14T01:25:37;4.47;;;2.10;;
33760;SDS011;20084;47.912;19.044;2023-06-14T01:28:04;2.10;;;1.65;;
33760;SDS011;20084;47.912;19.044;2023-06-14T01:30:35;2.25;;;1.95;;
33760;SDS011;20084;47.912;19.044;2023-06-14T01:33:09;3.80;;;1.80;;
33760;SDS011;20084;47.912;19.044;2023-06-14T01:35:50;1.95;;;1.75;;
33760;SDS011;20084;47.912;19.044;2023-06-14T01:38:17;3.60;;;1.73;;
33760;SDS011;20084;47.912;19.044;2023-06-14T01:40:45;2.25;;;1.88;;
33760;SDS011;20084;47.912;19.044;2023-06-14T01:43:13;3.72;;;2.38;;
33760;SDS011;20084;47.912;19.044;2023-06-14T01:45:40;2.35;;;2.10;;
33760;SDS011;20084;47.912;19.044;2023-06-14T01:48:07;2.85;;;2.30;;
33760;SDS011;20084;47.912;19.044;2023-06-14T01:50:33;2.17;;;1.98;;
33760;SDS011;20084;47.912;19.044;2023-06-14T01:52:59;3.40;;;2.25;;
33760;SDS011;20084;47.912;19.044;2023-06-14T01:55:25;3.65;;;1.80;;
33760;SDS011;20084;47.912;19.044;2023-06-14T01:57:51;3.10;;;1.90;;
33760;SDS011;20084;47.912;19.044;2023-06-14T02:00:17;2.00;;;1.63;;
33760;SDS011;20084;47.912;19.044;2023-06-14T02:02:43;2.03;;;1.83;;
33760;SDS011;20084;47.912;19.044;2023-06-14T02:05:09;1.60;;;1.50;;
33760;SDS011;20084;47.912;19.044;2023-06-14T02:07:35;3.92;;;1.75;;
33760;SDS011;20084;47.912;19.044;2023-06-14T02:10:02;2.33;;;1.60;;
33760;SDS011;20084;47.912;19.044;2023-06-14T02:12:29;1.75;;;1.65;;
33760;SDS011;20084;47.912;19.044;2023-06-14T02:14:54;2.40;;;2.17;;
33760;SDS011;20084;47.912;19.044;2023-06-14T02:17:21;2.95;;;1.85;;
33760;SDS011;20084;47.912;19.044;2023-06-14T02:19:47;2.58;;;1.77;;
33760;SDS011;20084;47.912;19.044;2023-06-14T02:22:13;1.83;;;1.73;;
33760;SDS011;20084;47.912;19.044;2023-06-14T02:24:40;2.47;;;2.13;;
33760;SDS011;20084;47.912;19.044;2023-06-14T02:27:06;3.97;;;2.28;;
33760;SDS011;20084;47.912;19.044;2023-06-14T02:29:33;3.53;;;2.08;;
33760;SDS011;20084;47.912;19.044;2023-06-14T02:31:59;3.72;;;1.60;;
33760;SDS011;20084;47.912;19.044;2023-06-14T02:34:24;3.33;;;2.10;;
33760;SDS011;20084;47.912;19.044;2023-06-14T02:36:50;2.72;;;2.10;;
33760;SDS011;20084;47.912;19.044;2023-06-14T02:39:17;2.47;;;2.28;;
33760;SDS011;20084;47.912;19.044;2023-06-14T02:41:45;3.15;;;2.60;;
33760;SDS011;20084;47.912;19.044;2023-06-14T02:44:12;3.22;;;2.67;;
33760;SDS011;20084;47.912;19.044;2023-06-14T02:46:38;4.07;;;2.83;;
33760;SDS011;20084;47.912;19.044;2023-06-14T02:49:05;3.17;;;2.55;;
33760;SDS011;20084;47.912;19.044;2023-06-14T02:51:30;3.88;;;2.58;;
33760;SDS011;20084;47.912;19.044;2023-06-14T02:53:56;3.65;;;2.63;;
33760;SDS011;20084;47.912;19.044;2023-06-14T02:56:22;3.33;;;2.60;;
33760;SDS011;20084;47.912;19.044;2023-06-14T02:58:48;2.88;;;2.35;;
33760;SDS011;20084;47.912;19.044;2023-06-14T03:01:13;3.17;;;2.88;;
33760;SDS011;20084;47.912;19.044;2023-06-14T03:03:39;3.65;;;2.63;;
33760;SDS011;20084;47.912;19.044;2023-06-14T03:06:05;3.05;;;2.75;;
33760;SDS011;20084;47.912;19.044;2023-06-14T03:08:33;4.60;;;3.33;;
33760;SDS011;20084;47.912;19.044;2023-06-14T03:11:03;6.35;;;3.45;;
33760;SDS011;20084;47.912;19.044;2023-06-14T03:13:34;6.75;;;4.38;;
33760;SDS011;20084;47.912;19.044;2023-06-14T03:16:00;4.97;;;3.83;;
33760;SDS011;20084;47.912;19.044;2023-06-14T03:18:31;5.97;;;4.78;;
33760;SDS011;20084;47.912;19.044;2023-06-14T03:21:00;6.32;;;4.57;;
33760;SDS011;20084;47.912;19.044;2023-06-14T03:23:28;5.30;;;4.13;;
33760;SDS011;20084;47.912;19.044;2023-06-14T03:25:54;5.15;;;4.57;;
33760;SDS011;20084;47.912;19.044;2023-06-14T03:28:21;6.90;;;4.75;;
33760;SDS011;20084;47.912;19.044;2023-06-14T03:30:46;5.35;;;4.85;;
33760;SDS011;20084;47.912;19.044;2023-06-14T03:33:12;5.93;;;4.93;;
33760;SDS011;20084;47.912;19.044;2023-06-14T03:35:37;5.97;;;5.32;;
33760;SDS011;20084;47.912;19.044;2023-06-14T03:38:03;6.78;;;5.25;;
33760;SDS011;20084;47.912;19.044;2023-06-14T03:40:29;10.15;;;5.65;;
33760;SDS011;20084;47.912;19.044;2023-06-14T03:42:54;5.85;;;5.25;;
33760;SDS011;20084;47.912;19.044;2023-06-14T03:45:20;6.53;;;5.65;;
33760;SDS011;20084;47.912;19.044;2023-06-14T03:47:46;5.93;;;5.13;;
33760;SDS011;20084;47.912;19.044;2023-06-14T03:50:12;7.65;;;5.85;;
33760;SDS011;20084;47.912;19.044;2023-06-14T03:52:38;5.80;;;5.15;;
33760;SDS011;20084;47.912;19.044;2023-06-14T03:55:04;6.95;;;5.53;;
33760;SDS011;20084;47.912;19.044;2023-06-14T03:57:30;6.65;;;5.25;;
33760;SDS011;20084;47.912;19.044;2023-06-14T03:59:56;5.97;;;5.38;;
33760;SDS011;20084;47.912;19.044;2023-06-14T04:02:22;6.45;;;5.32;;
33760;SDS011;20084;47.912;19.044;2023-06-14T04:04:48;6.40;;;5.15;;
33760;SDS011;20084;47.912;19.044;2023-06-14T04:07:14;6.13;;;5.28;;
33760;SDS011;20084;47.912;19.044;2023-06-14T04:09:40;5.53;;;4.85;;
33760;SDS011;20084;47.912;19.044;2023-06-14T04:12:07;5.72;;;4.43;;
33760;SDS011;20084;47.912;19.044;2023-06-14T04:14:39;6.25;;;4.63;;
33760;SDS011;20084;47.912;19.044;2023-06-14T04:17:05;5.78;;;5.10;;
33760;SDS011;20084;47.912;19.044;2023-06-14T04:19:31;9.63;;;5.43;;
33760;SDS011;20084;47.912;19.044;2023-06-14T04:21:57;5.18;;;4.55;;
33760;SDS011;20084;47.912;19.044;2023-06-14T04:24:26;5.97;;;5.13;;
33760;SDS011;20084;47.912;19.044;2023-06-14T04:26:57;7.35;;;6.05;;
33760;SDS011;20084;47.912;19.044;2023-06-14T04:29:24;7.93;;;6.13;;
33760;SDS011;20084;47.912;19.044;2023-06-14T04:31:53;6.90;;;5.85;;
33760;SDS011;20084;47.912;19.044;2023-06-14T04:34:19;8.23;;;5.90;;
33760;SDS011;20084;47.912;19.044;2023-06-14T04:36:46;7.88;;;6.07;;
33760;SDS011;20084;47.912;19.044;2023-06-14T04:39:18;8.18;;;6.93;;
33760;SDS011;20084;47.912;19.044;2023-06-14T04:41:45;8.02;;;6.07;;
33760;SDS011;20084;47.912;19.044;2023-06-14T04:44:12;8.07;;;6.28;;
33760;SDS011;20084;47.912;19.044;2023-06-14T04:46:38;6.90;;;5.80;;
33760;SDS011;20084;47.912;19.044;2023-06-14T04:49:11;7.85;;;6.43;;
33760;SDS011;20084;47.912;19.044;2023-06-14T04:51:39;7.82;;;5.88;;
33760;SDS011;20084;47.912;19.044;2023-06-14T04:54:05;7.63;;;6.20;;
33760;SDS011;20084;47.912;19.044;2023-06-14T04:56:35;6.88;;;6.15;;
33760;SDS011;20084;47.912;19.044;2023-06-14T04:59:02;7.00;;;5.85;;
33760;SDS011;20084;47.912;19.044;2023-06-14T05:01:29;7.18;;;6.32;;
33760;SDS011;20084;47.912;19.044;2023-06-14T05:03:56;8.77;;;5.80;;
33760;SDS011;20084;47.912;19.044;2023-06-14T05:06:22;6.82;;;5.65;;
33760;SDS011;20084;47.912;19.044;2023-06-14T05:08:48;6.20;;;5.60;;
33760;SDS011;20084;47.912;19.044;2023-06-14T05:11:14;9.43;;;6.30;;
33760;SDS011;20084;47.912;19.044;2023-06-14T05:13:42;8.45;;;5.63;;
33760;SDS011;20084;47.912;19.044;2023-06-14T05:16:09;6.03;;;5.03;;
33760;SDS011;20084;47.912;19.044;2023-06-14T05:18:36;6.10;;;5.45;;
33760;SDS011;20084;47.912;19.044;2023-06-14T05:21:02;6.40;;;5.13;;
33760;SDS011;20084;47.912;19.044;2023-06-14T05:23:29;6.63;;;4.90;;
33760;SDS011;20084;47.912;19.044;2023-06-14T05:25:55;6.70;;;5.10;;
33760;SDS011;20084;47.912;19.044;2023-06-14T05:28:21;14.65;;;7.82;;
33760;SDS011;20084;47.912;19.044;2023-06-14T05:30:47;5.95;;;5.28;;
33760;SDS011;20084;47.912;19.044;2023-06-14T05:33:13;6.28;;;5.30;;
33760;SDS011;20084;47.912;19.044;2023-06-14T05:35:38;7.32;;;5.47;;
33760;SDS011;20084;47.912;19.044;2023-06-14T05:38:04;6.72;;;5.10;;
33760;SDS011;20084;47.912;19.044;2023-06-14T05:40:30;6.65;;;5.28;;
33760;SDS011;20084;47.912;19.044;2023-06-14T05:42:56;8.60;;;5.18;;
33760;SDS011;20084;47.912;19.044;2023-06-14T05:45:22;5.85;;;4.80;;
33760;SDS011;20084;47.912;19.044;2023-06-14T05:47:47;8.57;;;5.30;;
33760;SDS011;20084;47.912;19.044;2023-06-14T05:50:13;7.93;;;5.53;;
33760;SDS011;20084;47.912;19.044;2023-06-14T05:52:38;5.20;;;4.65;;
33760;SDS011;20084;47.912;19.044;2023-06-14T05:55:04;12.10;;;5.38;;
33760;SDS011;20084;47.912;19.044;2023-06-14T05:57:31;5.53;;;4.68;;
33760;SDS011;20084;47.912;19.044;2023-06-14T05:59:56;5.88;;;5.15;;
33760;SDS011;20084;47.912;19.044;2023-06-14T06:02:22;9.15;;;4.95;;
33760;SDS011;20084;47.912;19.044;2023-06-14T06:04:47;8.23;;;5.35;;
33760;SDS011;20084;47.912;19.044;2023-06-14T06:07:13;6.80;;;5.25;;
33760;SDS011;20084;47.912;19.044;2023-06-14T06:09:39;6.05;;;4.85;;
33760;SDS011;20084;47.912;19.044;2023-06-14T06:12:06;5.40;;;4.85;;
33760;SDS011;20084;47.912;19.044;2023-06-14T06:14:32;6.22;;;4.63;;
33760;SDS011;20084;47.912;19.044;2023-06-14T06:16:58;6.50;;;4.82;;
33760;SDS011;20084;47.912;19.044;2023-06-14T06:19:24;6.40;;;4.90;;
33760;SDS011;20084;47.912;19.044;2023-06-14T06:21:50;8.43;;;4.65;;
33760;SDS011;20084;47.912;19.044;2023-06-14T06:24:16;5.13;;;4.63;;
33760;SDS011;20084;47.912;19.044;2023-06-14T06:26:41;5.93;;;4.70;;
33760;SDS011;20084;47.912;19.044;2023-06-14T06:29:07;5.97;;;4.65;;
33760;SDS011;20084;47.912;19.044;2023-06-14T06:31:33;6.47;;;3.92;;
33760;SDS011;20084;47.912;19.044;2023-06-14T06:33:59;6.28;;;4.65;;
33760;SDS011;20084;47.912;19.044;2023-06-14T06:36:25;6.32;;;4.65;;
33760;SDS011;20084;47.912;19.044;2023-06-14T06:38:50;6.95;;;4.85;;
33760;SDS011;20084;47.912;19.044;2023-06-14T06:41:16;6.80;;;5.07;;
33760;SDS011;20084;47.912;19.044;2023-06-14T06:43:41;6.25;;;4.70;;
33760;SDS011;20084;47.912;19.044;2023-06-14T06:46:07;4.32;;;3.92;;
33760;SDS011;20084;47.912;19.044;2023-06-14T06:48:33;5.05;;;4.18;;
33760;SDS011;20084;47.912;19.044;2023-06-14T06:50:58;5.22;;;4.15;;
33760;SDS011;20084;47.912;19.044;2023-06-14T06:53:24;5.07;;;4.57;;
33760;SDS011;20084;47.912;19.044;2023-06-14T06:55:50;6.70;;;4.60;;
33760;SDS011;20084;47.912;19.044;2023-06-14T06:58:15;5.43;;;4.35;;
33760;SDS011;20084;47.912;19.044;2023-06-14T07:00:41;4.82;;;4.30;;
33760;SDS011;20084;47.912;19.044;2023-06-14T07:03:06;5.13;;;4.22;;
33760;SDS011;20084;47.912;19.044;2023-06-14T07:05:32;4.93;;;4.45;;
33760;SDS011;20084;47.912;19.044;2023-06-14T07:07:58;5.03;;;4.47;;
33760;SDS011;20084;47.912;19.044;2023-06-14T07:10:23;4.88;;;4.47;;
33760;SDS011;20084;47.912;19.044;2023-06-14T07:12:49;6.63;;;5.25;;
33760;SDS011;20084;47.912;19.044;2023-06-14T07:15:15;5.07;;;3.97;;
33760;SDS011;20084;47.912;19.044;2023-06-14T07:17:41;4.63;;;4.20;;
33760;SDS011;20084;47.912;19.044;2023-06-14T07:20:08;4.68;;;4.10;;
33760;SDS011;20084;47.912;19.044;2023-06-14T07:22:38;4.10;;;3.70;;
33760;SDS011;20084;47.912;19.044;2023-06-14T07:25:08;4.75;;;4.20;;
33760;SDS011;20084;47.912;19.044;2023-06-14T07:27:37;6.43;;;4.18;;
33760;SDS011;20084;47.912;19.044;2023-06-14T07:30:03;4.97;;;4.03;;
33760;SDS011;20084;47.912;19.044;2023-06-14T07:32:29;4.75;;;3.85;;
33760;SDS011;20084;47.912;19.044;2023-06-14T07:34:54;5.47;;;4.30;;
33760;SDS011;20084;47.912;19.044;2023-06-14T07:37:20;5.72;;;4.13;;
33760;SDS011;20084;47.912;19.044;2023-06-14T07:39:46;4.03;;;3.60;;
33760;SDS011;20084;47.912;19.044;2023-06-14T07:42:11;5.63;;;3.75;;
33760;SDS011;20084;47.912;19.044;2023-06-14T07:44:37;4.03;;;3.72;;
33760;SDS011;20084;47.912;19.044;2023-06-14T07:47:02;4.50;;;3.30;;
33760;SDS011;20084;47.912;19.044;2023-06-14T07:49:28;4.30;;;3.90;;
33760;SDS011;20084;47.912;19.044;2023-06-14T07:51:54;5.43;;;3.97;;
33760;SDS011;20084;47.912;19.044;2023-06-14T07:54:20;5.32;;;4.65;;
33760;SDS011;20084;47.912;19.044;2023-06-14T07:56:49;6.68;;;3.95;;
33760;SDS011;20084;47.912;19.044;2023-06-14T07:59:15;6.72;;;4.97;;
33760;SDS011;20084;47.912;19.044;2023-06-14T08:01:41;5.18;;;3.83;;
33760;SDS011;20084;47.912;19.044;2023-06-14T08:04:11;6.65;;;4.13;;
33760;SDS011;20084;47.912;19.044;2023-06-14T08:06:38;4.88;;;3.85;;
33760;SDS011;20084;47.912;19.044;2023-06-14T08:09:04;5.10;;;4.10;;
33760;SDS011;20084;47.912;19.044;2023-06-14T08:11:30;11.93;;;4.32;;
33760;SDS011;20084;47.912;19.044;2023-06-14T08:13:56;4.38;;;3.38;;
33760;SDS011;20084;47.912;19.044;2023-06-14T08:16:21;4.35;;;3.40;;
33760;SDS011;20084;47.912;19.044;2023-06-14T08:18:48;4.25;;;3.80;;
33760;SDS011;20084;47.912;19.044;2023-06-14T08:21:13;4.68;;;3.97;;
33760;SDS011;20084;47.912;19.044;2023-06-14T08:23:40;4.03;;;3.30;;
33760;SDS011;20084;47.912;19.044;2023-06-14T08:26:07;4.65;;;3.90;;
33760;SDS011;20084;47.912;19.044;2023-06-14T08:28:34;4.55;;;3.38;;
33760;SDS011;20084;47.912;19.044;2023-06-14T08:30:59;5.75;;;3.60;;
33760;SDS011;20084;47.912;19.044;2023-06-14T08:33:25;5.68;;;3.90;;
33760;SDS011;20084;47.912;19.044;2023-06-14T08:35:50;6.95;;;4.55;;
33760;SDS011;20084;47.912;19.044;2023-06-14T08:38:16;4.88;;;3.80;;
33760;SDS011;20084;47.912;19.044;2023-06-14T08:40:42;5.75;;;3.97;;
33760;SDS011;20084;47.912;19.044;2023-06-14T08:43:08;5.00;;;4.10;;
33760;SDS011;20084;47.912;19.044;2023-06-14T08:45:34;8.90;;;4.35;;
33760;SDS011;20084;47.912;19.044;2023-06-14T08:48:00;4.20;;;3.55;;
33760;SDS011;20084;47.912;19.044;2023-06-14T08:50:27;4.53;;;3.60;;
33760;SDS011;20084;47.912;19.044;2023-06-14T08:53:00;6.38;;;4.20;;
33760;SDS011;20084;47.912;19.044;2023-06-14T08:55:27;4.82;;;3.50;;
33760;SDS011;20084;47.912;19.044;2023-06-14T08:57:55;6.35;;;3.40;;
33760;SDS011;20084;47.912;19.044;2023-06-14T09:00:25;6.80;;;4.13;;
33760;SDS011;20084;47.912;19.044;2023-06-14T09:02:53;5.03;;;3.80;;
33760;SDS011;20084;47.912;19.044;2023-06-14T09:07:51;3.75;;;3.20;;
33760;SDS011;20084;47.912;19.044;2023-06-14T09:10:17;3.33;;;2.92;;
33760;SDS011;20084;47.912;19.044;2023-06-14T09:12:43;5.60;;;3.35;;
33760;SDS011;20084;47.912;19.044;2023-06-14T09:15:09;3.88;;;2.92;;
33760;SDS011;20084;47.912;19.044;2023-06-14T09:17:35;4.22;;;3.35;;
33760;SDS011;20084;47.912;19.044;2023-06-14T09:20:05;4.65;;;3.30;;
33760;SDS011;20084;47.912;19.044;2023-06-14T09:22:33;5.47;;;3.58;;
33760;SDS011;20084;47.912;19.044;2023-06-14T09:24:59;3.80;;;2.63;;
33760;SDS011;20084;47.912;19.044;2023-06-14T09:27:26;5.43;;;3.05;;
33760;SDS011;20084;47.912;19.044;2023-06-14T09:29:52;3.40;;;2.83;;
33760;SDS011;20084;47.912;19.044;2023-06-14T09:32:18;5.10;;;2.72;;
33760;SDS011;20084;47.912;19.044;2023-06-14T09:34:45;4.03;;;2.80;;
33760;SDS011;20084;47.912;19.044;2023-06-14T09:37:11;2.63;;;2.42;;
33760;SDS011;20084;47.912;19.044;2023-06-14T09:39:49;6.10;;;3.15;;
33760;SDS011;20084;47.912;19.044;2023-06-14T09:42:16;2.75;;;2.38;;
33760;SDS011;20084;47.912;19.044;2023-06-14T09:44:43;4.00;;;3.10;;
33760;SDS011;20084;47.912;19.044;2023-06-14T09:47:12;4.40;;;2.63;;
33760;SDS011;20084;47.912;19.044;2023-06-14T09:49:39;3.72;;;2.97;;
33760;SDS011;20084;47.912;19.044;2023-06-14T09:52:05;3.30;;;3.00;;
33760;SDS011;20084;47.912;19.044;2023-06-14T09:54:33;3.75;;;2.92;;
33760;SDS011;20084;47.912;19.044;2023-06-14T09:57:05;2.85;;;2.55;;
33760;SDS011;20084;47.912;19.044;2023-06-14T09:59:32;3.42;;;3.08;;
33760;SDS011;20084;47.912;19.044;2023-06-14T10:02:00;4.78;;;3.17;;
33760;SDS011;20084;47.912;19.044;2023-06-14T10:04:32;7.82;;;3.97;;
33760;SDS011;20084;47.912;19.044;2023-06-14T10:06:59;3.40;;;2.83;;
33760;SDS011;20084;47.912;19.044;2023-06-14T10:09:27;6.50;;;2.95;;
33760;SDS011;20084;47.912;19.044;2023-06-14T10:11:54;3.72;;;3.35;;
33760;SDS011;20084;47.912;19.044;2023-06-14T10:14:21;5.63;;;3.03;;
33760;SDS011;20084;47.912;19.044;2023-06-14T10:24:25;3.42;;;3.00;;
33760;SDS011;20084;47.912;19.044;2023-06-14T10:26:58;5.03;;;2.60;;
33760;SDS011;20084;47.912;19.044;2023-06-14T10:29:26;5.70;;;3.33;;
33760;SDS011;20084;47.912;19.044;2023-06-14T10:31:57;4.82;;;2.97;;
33760;SDS011;20084;47.912;19.044;2023-06-14T10:34:27;5.85;;;3.17;;
33760;SDS011;20084;47.912;19.044;2023-06-14T10:37:07;5.88;;;3.22;;
33760;SDS011;20084;47.912;19.044;2023-06-14T10:39:41;4.13;;;2.80;;
33760;SDS011;20084;47.912;19.044;2023-06-14T10:42:08;7.10;;;3.38;;
33760;SDS011;20084;47.912;19.044;2023-06-14T10:44:39;12.05;;;3.45;;
33760;SDS011;20084;47.912;19.044;2023-06-14T10:47:09;5.18;;;2.70;;
33760;SDS011;20084;47.912;19.044;2023-06-14T10:49:45;5.22;;;3.65;;
33760;SDS011;20084;47.912;19.044;2023-06-14T10:52:16;4.68;;;3.65;;
33760;SDS011;20084;47.912;19.044;2023-06-14T10:57:36;3.33;;;2.95;;
33760;SDS011;20084;47.912;19.044;2023-06-14T11:00:07;6.05;;;3.97;;
33760;SDS011;20084;47.912;19.044;2023-06-14T11:05:28;3.45;;;3.03;;
33760;SDS011;20084;47.912;19.044;2023-06-14T11:10:39;5.00;;;3.08;;
33760;SDS011;20084;47.912;19.044;2023-06-14T11:13:09;6.88;;;3.40;;
33760;SDS011;20084;47.912;19.044;2023-06-14T11:15:38;5.35;;;2.88;;
33760;SDS011;20084;47.912;19.044;2023-06-14T11:18:10;7.68;;;2.35;;
33760;SDS011;20084;47.912;19.044;2023-06-14T11:20:39;4.65;;;2.40;;
33760;SDS011;20084;47.912;19.044;2023-06-14T11:23:05;3.90;;;2.50;;
33760;SDS011;20084;47.912;19.044;2023-06-14T11:25:31;3.20;;;2.47;;
33760;SDS011;20084;47.912;19.044;2023-06-14T11:27:57;2.67;;;2.20;;
33760;SDS011;20084;47.912;19.044;2023-06-14T11:30:24;3.05;;;2.13;;
33760;SDS011;20084;47.912;19.044;2023-06-14T11:32:51;16.98;;;3.33;;
33760;SDS011;20084;47.912;19.044;2023-06-14T11:35:18;3.72;;;2.10;;
33760;SDS011;20084;47.912;19.044;2023-06-14T11:37:46;8.95;;;2.15;;
33760;SDS011;20084;47.912;19.044;2023-06-14T11:40:14;8.05;;;2.92;;
33760;SDS011;20084;47.912;19.044;2023-06-14T11:42:40;4.80;;;2.17;;
33760;SDS011;20084;47.912;19.044;2023-06-14T11:45:09;3.33;;;2.17;;
33760;SDS011;20084;47.912;19.044;2023-06-14T11:47:37;6.22;;;2.42;;
33760;SDS011;20084;47.912;19.044;2023-06-14T11:50:05;5.28;;;2.72;;
33760;SDS011;20084;47.912;19.044;2023-06-14T11:52:33;2.70;;;2.50;;
33760;SDS011;20084;47.912;19.044;2023-06-14T11:54:59;2.50;;;2.25;;
33760;SDS011;20084;47.912;19.044;2023-06-14T11:57:26;9.10;;;2.50;;
33760;SDS011;20084;47.912;19.044;2023-06-14T11:59:51;3.83;;;2.03;;
33760;SDS011;20084;47.912;19.044;2023-06-14T12:02:21;2.20;;;2.00;;
33760;SDS011;20084;47.912;19.044;2023-06-14T12:04:47;2.50;;;2.30;;
33760;SDS011;20084;47.912;19.044;2023-06-14T12:07:14;2.83;;;1.70;;
33760;SDS011;20084;47.912;19.044;2023-06-14T12:09:41;3.92;;;1.85;;
33760;SDS011;20084;47.912;19.044;2023-06-14T12:12:11;2.17;;;2.08;;
33760;SDS011;20084;47.912;19.044;2023-06-14T12:14:37;2.67;;;2.30;;
33760;SDS011;20084;47.912;19.044;2023-06-14T12:17:06;2.38;;;2.15;;
33760;SDS011;20084;47.912;19.044;2023-06-14T12:19:32;2.78;;;2.42;;
33760;SDS011;20084;47.912;19.044;2023-06-14T12:22:01;4.00;;;1.90;;
33760;SDS011;20084;47.912;19.044;2023-06-14T12:24:30;2.50;;;1.85;;
33760;SDS011;20084;47.912;19.044;2023-06-14T12:26:57;1.75;;;1.63;;
33760;SDS011;20084;47.912;19.044;2023-06-14T12:29:28;2.05;;;1.85;;
33760;SDS011;20084;47.912;19.044;2023-06-14T12:31:54;2.10;;;1.95;;
33760;SDS011;20084;47.912;19.044;2023-06-14T12:34:22;5.07;;;2.17;;
33760;SDS011;20084;47.912;19.044;2023-06-14T12:36:52;2.13;;;1.90;;
33760;SDS011;20084;47.912;19.044;2023-06-14T12:39:21;9.18;;;2.15;;
33760;SDS011;20084;47.912;19.044;2023-06-14T12:41:47;3.78;;;1.70;;
33760;SDS011;20084;47.912;19.044;2023-06-14T12:44:13;2.10;;;1.90;;
33760;SDS011;20084;47.912;19.044;2023-06-14T12:46:41;2.80;;;2.30;;
33760;SDS011;20084;47.912;19.044;2023-06-14T12:49:09;2.42;;;1.92;;
33760;SDS011;20084;47.912;19.044;2023-06-14T12:51:37;2.70;;;2.05;;
33760;SDS011;20084;47.912;19.044;2023-06-14T12:54:03;1.92;;;1.83;;
33760;SDS011;20084;47.912;19.044;2023-06-14T12:56:29;2.85;;;2.00;;
33760;SDS011;20084;47.912;19.044;2023-06-14T12:58:54;4.22;;;2.50;;
33760;SDS011;20084;47.912;19.044;2023-06-14T13:01:20;3.42;;;1.63;;
33760;SDS011;20084;47.912;19.044;2023-06-14T13:03:46;1.42;;;1.33;;
33760;SDS011;20084;47.912;19.044;2023-06-14T13:06:12;1.60;;;1.50;;
33760;SDS011;20084;47.912;19.044;2023-06-14T13:08:38;2.72;;;1.70;;
33760;SDS011;20084;47.912;19.044;2023-06-14T13:11:04;2.30;;;1.85;;
33760;SDS011;20084;47.912;19.044;2023-06-14T13:13:30;1.80;;;1.70;;
33760;SDS011;20084;47.912;19.044;2023-06-14T13:15:55;2.30;;;1.60;;
33760;SDS011;20084;47.912;19.044;2023-06-14T13:18:21;3.70;;;1.52;;
33760;SDS011;20084;47.912;19.044;2023-06-14T13:20:47;1.60;;;1.30;;
33760;SDS011;20084;47.912;19.044;2023-06-14T13:23:13;2.90;;;1.48;;
33760;SDS011;20084;47.912;19.044;2023-06-14T13:25:41;2.10;;;1.50;;
33760;SDS011;20084;47.912;19.044;2023-06-14T13:28:06;2.60;;;1.60;;
33760;SDS011;20084;47.912;19.044;2023-06-14T13:30:32;1.88;;;1.67;;
33760;SDS011;20084;47.912;19.044;2023-06-14T13:32:58;7.97;;;1.85;;
33760;SDS011;20084;47.912;19.044;2023-06-14T13:35:25;1.75;;;1.60;;
33760;SDS011;20084;47.912;19.044;2023-06-14T13:37:50;2.38;;;1.52;;
33760;SDS011;20084;47.912;19.044;2023-06-14T13:40:16;2.50;;;1.92;;
33760;SDS011;20084;47.912;19.044;2023-06-14T13:42:42;3.03;;;1.50;;
33760;SDS011;20084;47.912;19.044;2023-06-14T13:45:09;3.67;;;1.50;;
33760;SDS011;20084;47.912;19.044;2023-06-14T13:47:36;4.35;;;1.85;;
33760;SDS011;20084;47.912;19.044;2023-06-14T13:50:02;4.53;;;1.60;;
33760;SDS011;20084;47.912;19.044;2023-06-14T13:52:28;2.80;;;1.70;;
33760;SDS011;20084;47.912;19.044;2023-06-14T13:54:54;1.70;;;1.42;;
33760;SDS011;20084;47.912;19.044;2023-06-14T13:57:20;1.60;;;1.42;;
33760;SDS011;20084;47.912;19.044;2023-06-14T13:59:46;1.67;;;1.52;;
33760;SDS011;20084;47.912;19.044;2023-06-14T14:02:13;1.65;;;1.33;;
33760;SDS011;20084;47.912;19.044;2023-06-14T14:04:39;4.90;;;2.20;;
33760;SDS011;20084;47.912;19.044;2023-06-14T14:07:05;3.75;;;1.60;;
33760;SDS011;20084;47.912;19.044;2023-06-14T14:09:32;1.95;;;1.27;;
33760;SDS011;20084;47.912;19.044;2023-06-14T14:11:59;2.47;;;1.45;;
33760;SDS011;20084;47.912;19.044;2023-06-14T14:14:25;1.75;;;1.55;;
33760;SDS011;20084;47.912;19.044;2023-06-14T14:16:52;1.35;;;1.25;;
33760;SDS011;20084;47.912;19.044;2023-06-14T14:19:20;2.67;;;1.38;;
33760;SDS011;20084;47.912;19.044;2023-06-14T14:21:47;2.10;;;1.73;;
33760;SDS011;20084;47.912;19.044;2023-06-14T14:24:13;3.42;;;1.80;;
33760;SDS011;20084;47.912;19.044;2023-06-14T14:26:38;4.47;;;1.60;;
33760;SDS011;20084;47.912;19.044;2023-06-14T14:29:04;4.00;;;2.00;;
33760;SDS011;20084;47.912;19.044;2023-06-14T14:31:31;3.25;;;1.60;;
33760;SDS011;20084;47.912;19.044;2023-06-14T14:33:56;7.03;;;1.73;;
33760;SDS011;20084;47.912;19.044;2023-06-14T14:36:22;3.47;;;2.10;;
33760;SDS011;20084;47.912;19.044;2023-06-14T14:38:48;3.50;;;1.63;;
33760;SDS011;20084;47.912;19.044;2023-06-14T14:41:13;2.13;;;1.85;;
33760;SDS011;20084;47.912;19.044;2023-06-14T14:43:39;3.97;;;1.98;;
33760;SDS011;20084;47.912;19.044;2023-06-14T14:46:05;1.95;;;1.70;;
33760;SDS011;20084;47.912;19.044;2023-06-14T14:48:30;4.28;;;1.52;;
33760;SDS011;20084;47.912;19.044;2023-06-14T14:50:56;6.30;;;1.80;;
33760;SDS011;20084;47.912;19.044;2023-06-14T14:53:22;3.90;;;1.73;;
33760;SDS011;20084;47.912;19.044;2023-06-14T14:55:48;3.15;;;1.60;;